Time;durP1;ratioP1;P1;durP2;ratioP2;P2;SDS_P1;SDS_P2;PMS_P1;PMS_P2;Temp;Humidity;BMP_temperature;BMP_pressure;BME280_temperature;BME280_humidity;BME280_pressure;Samples;Min_cycle;Max_cycle;Signal;HPM_P1;HPM_P2
2023/07/04 00:00:35;;;;;;;;;4.50;3.00;;;;;;;;2060787;27;2737807;-82
2023/07/04 00:01:46;;;;;;;;;4.67;2.33;;;;;;;;2013025;27;2754486;-82
2023/07/04 00:02:56;;;;;;;;;4.00;4.00;;;;;;;;2041063;27;2746101;-83
2023/07/04 00:04:08;;;;;;;;;5.67;3.00;;;;;;;;2059979;27;2735682;-82
2023/07/04 00:05:18;;;;;;;;;4.33;4.00;;;;;;;;2035185;27;2753464;-82
2023/07/04 00:06:29;;;;;;;;;4.67;4.67;;;;;;;;2051700;27;2752346;-83
2023/07/04 00:07:41;;;;;;;;;3.75;3.75;;;;;;;;2059746;27;2739899;-82
2023/07/04 00:08:55;;;;;;;;;6.00;4.17;;;;;;;;2040380;27;2739863;-83
2023/07/04 00:10:06;;;;;;;;;8.00;5.67;;;;;;;;2018087;27;2747140;-82
2023/07/04 00:11:20;;;;;;;;;3.83;3.50;;;;;;;;2054145;27;2736719;-83
2023/07/04 00:12:31;;;;;;;;;4.00;4.00;;;;;;;;2004922;27;2754475;-83
2023/07/04 00:13:41;;;;;;;;;4.00;4.00;;;;;;;;2034455;27;2754450;-83
2023/07/04 00:14:52;;;;;;;;;8.00;3.00;;;;;;;;2054561;27;2753505;-83
2023/07/04 00:16:07;;;;;;;;;5.00;5.00;;;;;;;;2046728;27;2746099;-83
2023/07/04 00:17:18;;;;;;;;;7.00;4.00;;;;;;;;2028473;27;2741935;-83
2023/07/04 00:18:29;;;;;;;;;4.33;3.67;;;;;;;;2036314;27;2750344;-84
2023/07/04 00:19:40;;;;;;;;;6.00;5.00;;;;;;;;2054597;27;2746118;-84
2023/07/04 00:20:54;;;;;;;;;3.67;2.00;;;;;;;;2061871;27;2736716;-84
2023/07/04 00:22:10;;;;;;;;;5.83;4.67;;;;;;;;2069618;27;2740887;-83
2023/07/04 00:23:29;;;;;;;;;5.17;4.50;;;;;;;;2044869;27;2740889;-82
2023/07/04 00:24:40;;;;;;;;;6.00;4.00;;;;;;;;2016802;27;2740081;-83
2023/07/04 00:25:53;;;;;;;;;2.00;0.00;;;;;;;;2061873;27;2733646;-83
2023/07/04 00:27:04;;;;;;;;;4.33;4.33;;;;;;;;2036511;27;2742976;-82
2023/07/04 00:28:14;;;;;;;;;5.67;3.33;;;;;;;;2060549;27;3465877;-83
2023/07/04 00:29:26;;;;;;;;;6.00;4.33;;;;;;;;2061919;27;2754492;-83
2023/07/04 00:30:36;;;;;;;;;7.00;4.00;;;;;;;;2027105;27;3470027;-83
2023/07/04 00:31:47;;;;;;;;;4.33;4.33;;;;;;;;2057500;27;3449690;-79
2023/07/04 00:32:58;;;;;;;;;5.33;4.00;;;;;;;;2053537;27;2751401;-79
2023/07/04 00:34:09;;;;;;;;;5.00;4.00;;;;;;;;2052376;27;2749255;-79
2023/07/04 00:35:19;;;;;;;;;8.00;5.00;;;;;;;;2035852;27;2757666;-79
2023/07/04 00:36:31;;;;;;;;;4.00;3.25;;;;;;;;2068651;27;2750309;-79
2023/07/04 00:37:44;;;;;;;;;6.00;3.17;;;;;;;;2046024;27;2744035;-81
2023/07/04 00:38:56;;;;;;;;;6.00;5.00;;;;;;;;2011672;27;2746095;-81
2023/07/04 00:40:11;;;;;;;;;6.00;4.00;;;;;;;;2033386;27;2747509;-81
2023/07/04 00:41:23;;;;;;;;;5.00;4.00;;;;;;;;2035706;27;2750284;-81
2023/07/04 00:42:36;;;;;;;;;9.67;4.00;;;;;;;;2039867;27;2769138;-81
2023/07/04 00:44:00;;;;;;;;;6.00;5.00;;;;;;;;2043654;27;2752339;-81
2023/07/04 00:45:19;;;;;;;;;2.67;2.67;;;;;;;;2044378;27;2735682;-81
2023/07/04 00:46:39;;;;;;;;;5.33;4.67;;;;;;;;2034676;27;2745123;-80
2023/07/04 00:47:55;;;;;;;;;8.00;4.00;;;;;;;;2037765;27;2751790;-78
2023/07/04 00:49:17;;;;;;;;;6.00;4.00;;;;;;;;2043496;27;2754493;-80
2023/07/04 00:50:31;;;;;;;;;6.00;5.00;;;;;;;;2041047;27;2745063;-80
2023/07/04 00:51:42;;;;;;;;;4.00;4.00;;;;;;;;2043580;27;2738182;-80
2023/07/04 00:52:56;;;;;;;;;7.33;5.00;;;;;;;;2044057;27;2748260;-80
2023/07/04 00:54:06;;;;;;;;;4.33;4.33;;;;;;;;2040083;27;2748289;-80
2023/07/04 00:55:17;;;;;;;;;4.67;4.00;;;;;;;;2062647;27;2750332;-79
2023/07/04 00:56:28;;;;;;;;;5.00;2.00;;;;;;;;2065992;27;2730466;-79
2023/07/04 00:57:39;;;;;;;;;4.00;4.00;;;;;;;;2019484;27;2754582;-79
2023/07/04 00:58:50;;;;;;;;;4.00;3.67;;;;;;;;2055779;27;2750281;-79
2023/07/04 01:00:15;;;;;;;;;6.00;4.00;;;;;;;;2033489;27;2754467;-81
2023/07/04 01:01:26;;;;;;;;;7.00;4.00;;;;;;;;2031753;27;2746090;-81
2023/07/04 01:02:37;;;;;;;;;5.00;5.00;;;;;;;;2029075;27;2746134;-81
2023/07/04 01:03:50;;;;;;;;;3.67;3.67;;;;;;;;2056399;27;2744012;-80
2023/07/04 01:05:03;;;;;;;;;5.00;3.33;;;;;;;;2020357;27;2741948;-80
2023/07/04 01:06:23;;;;;;;;;2.33;2.33;;;;;;;;2038294;27;2751407;-82
2023/07/04 01:07:48;;;;;;;;;4.67;4.67;;;;;;;;2042898;27;2753505;-81
2023/07/04 01:09:00;;;;;;;;;6.67;4.67;;;;;;;;2043583;27;2747136;-81
2023/07/04 01:10:12;;;;;;;;;5.00;5.00;;;;;;;;2040182;27;2748252;-82
2023/07/04 01:11:30;;;;;;;;;5.00;3.00;;;;;;;;2035540;27;2739880;-82
2023/07/04 01:12:40;;;;;;;;;4.67;4.00;;;;;;;;2035442;27;2749239;-81
2023/07/04 01:13:53;;;;;;;;;10.33;2.67;;;;;;;;2061634;27;3498184;-82
2023/07/04 01:15:03;;;;;;;;;3.33;3.33;;;;;;;;2037138;27;2736772;-82
2023/07/04 01:16:15;;;;;;;;;9.00;4.33;;;;;;;;2048658;27;2753488;-81
2023/07/04 01:17:26;;;;;;;;;5.67;4.33;;;;;;;;2043534;27;2747150;-81
2023/07/04 01:18:38;;;;;;;;;4.00;4.00;;;;;;;;2038522;27;2752346;-81
2023/07/04 01:19:51;;;;;;;;;3.50;3.00;;;;;;;;2065104;27;2745052;-80
2023/07/04 01:21:05;;;;;;;;;4.00;3.00;;;;;;;;2004736;27;2737849;-78
2023/07/04 01:22:15;;;;;;;;;2.00;2.00;;;;;;;;2029038;27;2753406;-78
2023/07/04 01:23:29;;;;;;;;;6.00;5.00;;;;;;;;2065621;27;2747642;-78
2023/07/04 01:24:53;;;;;;;;;4.33;4.33;;;;;;;;2038358;27;2752440;-78
2023/07/04 01:26:21;;;;;;;;;3.00;3.00;;;;;;;;2041239;27;2748257;-78
2023/07/04 01:27:36;;;;;;;;;3.17;2.50;;;;;;;;2067923;27;2738848;-78
2023/07/04 01:28:47;;;;;;;;;5.00;5.00;;;;;;;;2019786;27;2746101;-78
2023/07/04 01:30:04;;;;;;;;;3.00;3.00;;;;;;;;2067951;27;2739843;-78
2023/07/04 01:31:14;;;;;;;;;7.00;5.00;;;;;;;;2019427;27;2739961;-79
2023/07/04 01:32:25;;;;;;;;;6.33;3.67;;;;;;;;2066008;27;3461711;-83
2023/07/04 01:33:40;;;;;;;;;5.00;5.00;;;;;;;;2052035;27;2743041;-83
2023/07/04 01:34:53;;;;;;;;;7.00;4.00;;;;;;;;2035076;27;2746107;-77
2023/07/04 01:36:09;;;;;;;;;5.33;4.00;;;;;;;;2068336;27;2742990;-77
2023/07/04 01:37:19;;;;;;;;;4.67;4.00;;;;;;;;2014633;27;3467999;-78
2023/07/04 01:38:30;;;;;;;;;6.00;4.00;;;;;;;;2057795;27;2746097;-81
2023/07/04 01:39:41;;;;;;;;;7.33;5.00;;;;;;;;2043620;27;2741939;-81
2023/07/04 01:40:52;;;;;;;;;4.67;3.33;;;;;;;;2061098;27;2754446;-81
2023/07/04 01:42:05;;;;;;;;;3.00;2.67;;;;;;;;2042277;27;2738811;-81
2023/07/04 01:43:18;;;;;;;;;5.33;3.33;;;;;;;;2060670;27;2737754;-79
2023/07/04 01:44:28;;;;;;;;;6.67;4.00;;;;;;;;2019090;27;3470040;-79
2023/07/04 01:45:39;;;;;;;;;5.67;4.00;;;;;;;;2065447;27;2744165;-79
2023/07/04 01:46:50;;;;;;;;;4.33;4.33;;;;;;;;2056113;27;2745146;-79
2023/07/04 01:48:02;;;;;;;;;8.25;4.50;;;;;;;;2047728;27;1831490;-79
2023/07/04 01:49:12;;;;;;;;;4.33;4.33;;;;;;;;2035910;27;2745088;-79
2023/07/04 01:50:23;;;;;;;;;7.00;5.33;;;;;;;;2063889;27;2748249;-79
2023/07/04 01:51:36;;;;;;;;;7.33;6.33;;;;;;;;2060336;27;2740955;-79
2023/07/04 01:52:49;;;;;;;;;6.50;5.83;;;;;;;;2069664;27;2736728;-79
2023/07/04 01:54:00;;;;;;;;;4.33;4.00;;;;;;;;2019835;27;2749207;-79
2023/07/04 01:55:12;;;;;;;;;5.67;4.00;;;;;;;;2047347;27;2749305;-79
2023/07/04 01:56:22;;;;;;;;;4.67;4.67;;;;;;;;2035742;27;2739850;-79
2023/07/04 01:57:33;;;;;;;;;4.67;4.33;;;;;;;;2059089;27;2750308;-80
2023/07/04 01:58:44;;;;;;;;;6.00;4.00;;;;;;;;2066064;27;2746154;-80
2023/07/04 01:59:54;;;;;;;;;4.00;3.33;;;;;;;;2041947;27;2742064;-79
2023/07/04 02:01:05;;;;;;;;;5.67;3.33;;;;;;;;2063363;27;2744015;-79
2023/07/04 02:02:15;;;;;;;;;6.00;3.00;;;;;;;;2040323;27;2742965;-79
2023/07/04 02:03:26;;;;;;;;;6.33;4.67;;;;;;;;2055865;27;2752444;-79
2023/07/04 02:04:37;;;;;;;;;2.33;2.33;;;;;;;;2062693;27;2734668;-78
2023/07/04 02:05:48;;;;;;;;;4.67;3.33;;;;;;;;2067851;27;2745563;-78
2023/07/04 02:07:00;;;;;;;;;5.40;4.00;;;;;;;;2067135;27;2747139;-78
2023/07/04 02:08:13;;;;;;;;;3.83;3.83;;;;;;;;2047097;27;2737764;-78
2023/07/04 02:09:26;;;;;;;;;2.33;2.33;;;;;;;;2044662;27;2730831;-78
2023/07/04 02:10:37;;;;;;;;;4.00;3.33;;;;;;;;2011041;27;2747135;-78
2023/07/04 02:11:48;;;;;;;;;3.00;3.00;;;;;;;;2060518;27;2731518;-78
2023/07/04 02:13:02;;;;;;;;;5.83;2.67;;;;;;;;2064231;27;2741916;-81
2023/07/04 02:14:12;;;;;;;;;5.67;4.33;;;;;;;;2014225;27;2750366;-78
2023/07/04 02:15:24;;;;;;;;;5.67;4.00;;;;;;;;2051795;27;3465888;-82
2023/07/04 02:16:34;;;;;;;;;8.00;5.00;;;;;;;;2042184;27;2750387;-81
2023/07/04 02:17:47;;;;;;;;;3.00;3.00;;;;;;;;2066157;27;2748221;-81
2023/07/04 02:19:00;;;;;;;;;4.67;3.33;;;;;;;;2068971;27;2741946;-81
2023/07/04 02:20:10;;;;;;;;;5.00;5.00;;;;;;;;2017284;27;3470012;-79
2023/07/04 02:21:22;;;;;;;;;4.50;3.00;;;;;;;;2068294;27;2749568;-78
2023/07/04 02:22:33;;;;;;;;;5.67;3.33;;;;;;;;2020485;27;2742993;-78
2023/07/04 02:23:44;;;;;;;;;4.00;3.50;;;;;;;;2062671;27;2741941;-78
2023/07/04 02:24:57;;;;;;;;;4.33;4.33;;;;;;;;2060323;27;2741954;-78
2023/07/04 02:26:08;;;;;;;;;6.00;4.67;;;;;;;;2010768;27;2746133;-78
2023/07/04 02:27:19;;;;;;;;;4.00;4.00;;;;;;;;2039090;28;2754521;-78
2023/07/04 02:28:29;;;;;;;;;5.67;3.00;;;;;;;;2043121;27;2742974;-78
2023/07/04 02:29:40;;;;;;;;;5.00;3.67;;;;;;;;2059789;27;2752342;-78
2023/07/04 02:30:57;;;;;;;;;2.67;2.33;;;;;;;;2033938;27;2754423;-78
2023/07/04 02:32:10;;;;;;;;;5.00;4.00;;;;;;;;2051750;27;2752344;-78
2023/07/04 02:33:21;;;;;;;;;7.00;5.00;;;;;;;;2006989;27;2748179;-77
2023/07/04 02:34:32;;;;;;;;;4.67;4.00;;;;;;;;2063118;27;2752466;-84
2023/07/04 02:35:45;;;;;;;;;3.00;3.00;;;;;;;;2067970;27;2734003;-83
2023/07/04 02:36:55;;;;;;;;;4.00;3.00;;;;;;;;2036166;27;3451263;-83
2023/07/04 02:38:06;;;;;;;;;4.00;4.00;;;;;;;;2058551;27;2753512;-83
2023/07/04 02:39:17;;;;;;;;;6.00;3.67;;;;;;;;2059447;27;2750259;-83
2023/07/04 02:40:28;;;;;;;;;5.00;3.67;;;;;;;;2068395;27;2738814;-83
2023/07/04 02:41:41;;;;;;;;;3.80;3.80;;;;;;;;2069430;27;2742969;-83
2023/07/04 02:42:51;;;;;;;;;5.00;3.00;;;;;;;;2018149;27;2737808;-79
2023/07/04 02:44:02;;;;;;;;;4.00;2.00;;;;;;;;2065569;27;2745068;-79
2023/07/04 02:45:13;;;;;;;;;4.33;3.00;;;;;;;;2060628;27;2752492;-79
2023/07/04 02:46:23;;;;;;;;;6.67;3.00;;;;;;;;2050201;27;2746118;-79
2023/07/04 02:47:34;;;;;;;;;4.00;3.00;;;;;;;;2048691;27;2744122;-79
2023/07/04 02:48:45;;;;;;;;;5.33;4.00;;;;;;;;2062367;27;2752381;-79
2023/07/04 02:49:56;;;;;;;;;4.67;4.00;;;;;;;;2061749;27;2754431;-79
2023/07/04 02:51:07;;;;;;;;;4.00;2.33;;;;;;;;2068463;27;2726319;-79
2023/07/04 02:52:17;;;;;;;;;6.67;5.00;;;;;;;;2041231;27;2740901;-79
2023/07/04 02:53:28;;;;;;;;;5.33;4.33;;;;;;;;2062427;27;2754519;-79
2023/07/04 02:54:39;;;;;;;;;4.00;4.00;;;;;;;;2055460;27;2744127;-78
2023/07/04 02:55:54;;;;;;;;;5.33;3.67;;;;;;;;2067887;27;2746090;-77
2023/07/04 02:57:05;;;;;;;;;4.67;4.00;;;;;;;;2040771;27;2750352;-77
2023/07/04 02:58:16;;;;;;;;;3.33;3.33;;;;;;;;2037115;27;2753393;-76
2023/07/04 02:59:26;;;;;;;;;5.67;3.00;;;;;;;;2058442;27;2750269;-76
2023/07/04 03:00:37;;;;;;;;;8.67;4.67;;;;;;;;2059031;27;2756064;-78
2023/07/04 03:01:50;;;;;;;;;5.33;3.67;;;;;;;;2061944;27;2748245;-77
2023/07/04 03:03:00;;;;;;;;;6.33;4.00;;;;;;;;2030669;27;3463765;-77
2023/07/04 03:04:11;;;;;;;;;0.33;0.00;;;;;;;;2061251;27;2722152;-77
2023/07/04 03:05:21;;;;;;;;;4.00;4.00;;;;;;;;2043203;27;2741922;-77
2023/07/04 03:06:32;;;;;;;;;3.33;3.33;;;;;;;;2053491;27;2736803;-77
2023/07/04 03:07:43;;;;;;;;;5.33;3.67;;;;;;;;2053056;27;2750315;-78
2023/07/04 03:08:56;;;;;;;;;2.00;2.00;;;;;;;;2067746;27;2739860;-78
2023/07/04 03:10:06;;;;;;;;;5.00;3.67;;;;;;;;2042947;27;2746091;-79
2023/07/04 03:11:17;;;;;;;;;6.00;4.00;;;;;;;;2059032;27;2754489;-78
2023/07/04 03:12:28;;;;;;;;;5.00;4.00;;;;;;;;2053925;27;2750342;-78
2023/07/04 03:13:39;;;;;;;;;4.33;1.67;;;;;;;;2067690;27;2740893;-79
2023/07/04 03:14:49;;;;;;;;;4.67;3.67;;;;;;;;2043218;27;2744037;-78
2023/07/04 03:16:00;;;;;;;;;7.67;3.33;;;;;;;;2068929;27;2738864;-78
2023/07/04 03:17:10;;;;;;;;;3.67;3.33;;;;;;;;2037532;27;2754519;-78
2023/07/04 03:18:22;;;;;;;;;5.67;3.33;;;;;;;;2063869;27;2748192;-79
2023/07/04 03:19:33;;;;;;;;;3.00;0.25;;;;;;;;2069950;27;2733976;-80
2023/07/04 03:20:43;;;;;;;;;5.33;3.00;;;;;;;;2043135;27;2746188;-80
2023/07/04 03:21:54;;;;;;;;;3.67;3.00;;;;;;;;2060102;27;2741282;-80
2023/07/04 03:23:04;;;;;;;;;5.67;4.00;;;;;;;;2034480;27;2754510;-79
2023/07/04 03:24:15;;;;;;;;;4.00;2.33;;;;;;;;2059015;27;2742994;-84
2023/07/04 03:25:26;;;;;;;;;5.00;5.00;;;;;;;;2054833;27;2740910;-84
2023/07/04 03:26:37;;;;;;;;;4.00;3.00;;;;;;;;2051406;27;2725274;-84
2023/07/04 03:27:48;;;;;;;;;4.00;3.33;;;;;;;;2046076;27;2747154;-84
2023/07/04 03:28:59;;;;;;;;;4.00;4.00;;;;;;;;2055675;27;2750253;-84
2023/07/04 03:30:11;;;;;;;;;4.00;3.00;;;;;;;;2069446;27;2741931;-84
2023/07/04 03:31:21;;;;;;;;;7.33;4.00;;;;;;;;2044179;27;2752404;-84
2023/07/04 03:32:32;;;;;;;;;5.00;5.00;;;;;;;;2065474;27;2754427;-84
2023/07/04 03:33:43;;;;;;;;;4.67;4.33;;;;;;;;2050587;27;2749254;-84
2023/07/04 03:34:55;;;;;;;;;2.00;2.00;;;;;;;;2069656;27;2740902;-84
2023/07/04 03:36:06;;;;;;;;;7.67;4.00;;;;;;;;2042076;27;2752430;-84
2023/07/04 03:37:16;;;;;;;;;5.00;4.00;;;;;;;;2040100;27;2754439;-84
2023/07/04 03:38:27;;;;;;;;;6.00;4.33;;;;;;;;2064524;27;2748185;-84
2023/07/04 03:39:38;;;;;;;;;4.67;3.67;;;;;;;;2054798;27;2744011;-84
2023/07/04 03:40:49;;;;;;;;;5.00;3.00;;;;;;;;2063444;27;2746100;-80
2023/07/04 03:42:00;;;;;;;;;5.00;3.67;;;;;;;;2054163;27;2752697;-79
2023/07/04 03:43:11;;;;;;;;;4.67;3.00;;;;;;;;2057638;27;3465884;-79
2023/07/04 03:44:21;;;;;;;;;7.00;5.00;;;;;;;;2067347;27;2742969;-79
2023/07/04 03:45:32;;;;;;;;;4.00;4.00;;;;;;;;2044762;27;2754445;-79
2023/07/04 03:46:43;;;;;;;;;5.67;4.00;;;;;;;;2068181;27;2744055;-79
2023/07/04 03:47:53;;;;;;;;;6.33;4.33;;;;;;;;2046191;27;2749277;-79
2023/07/04 03:49:04;;;;;;;;;8.33;6.00;;;;;;;;2063774;27;3475244;-78
2023/07/04 03:50:15;;;;;;;;;5.00;3.00;;;;;;;;2059071;27;3461734;-78
2023/07/04 03:51:26;;;;;;;;;4.00;4.00;;;;;;;;2063234;27;2748211;-78
2023/07/04 03:52:37;;;;;;;;;4.00;3.33;;;;;;;;2064310;27;2750324;-77
2023/07/04 03:53:48;;;;;;;;;6.00;4.00;;;;;;;;2050760;27;3449199;-77
2023/07/04 03:54:59;;;;;;;;;4.00;3.67;;;;;;;;2035937;27;2748251;-77
2023/07/04 03:56:10;;;;;;;;;4.33;4.00;;;;;;;;2053991;27;2750309;-77
2023/07/04 03:57:20;;;;;;;;;7.33;4.67;;;;;;;;2046672;27;2750374;-77
2023/07/04 03:58:32;;;;;;;;;3.00;3.00;;;;;;;;2060589;27;2754523;-77
2023/07/04 03:59:42;;;;;;;;;3.00;3.00;;;;;;;;2047593;27;2748222;-79
2023/07/04 04:00:53;;;;;;;;;4.67;3.00;;;;;;;;2068939;27;2739878;-79
2023/07/04 04:02:05;;;;;;;;;4.00;4.00;;;;;;;;2040867;27;2752380;-79
2023/07/04 04:03:16;;;;;;;;;6.33;4.67;;;;;;;;2018699;27;3458601;-80
2023/07/04 04:04:28;;;;;;;;;1.00;1.00;;;;;;;;2070650;27;2722133;-81
2023/07/04 04:05:38;;;;;;;;;5.67;4.00;;;;;;;;2011766;27;2754561;-79
2023/07/04 04:06:52;;;;;;;;;4.00;4.00;;;;;;;;2049634;27;2747140;-78
2023/07/04 04:08:02;;;;;;;;;6.67;5.00;;;;;;;;2029638;27;2743052;-86
2023/07/04 04:09:13;;;;;;;;;6.33;3.00;;;;;;;;2064781;27;3470079;-86
2023/07/04 04:10:24;;;;;;;;;3.00;3.00;;;;;;;;2062681;27;2746106;-86
2023/07/04 04:11:35;;;;;;;;;4.67;4.00;;;;;;;;2058082;27;2754532;-86
2023/07/04 04:12:46;;;;;;;;;1.33;1.00;;;;;;;;2068635;27;2737260;-86
2023/07/04 04:13:56;;;;;;;;;5.00;4.00;;;;;;;;2042135;27;3470057;-86
2023/07/04 04:15:07;;;;;;;;;5.00;4.00;;;;;;;;2065727;27;2748549;-86
2023/07/04 04:16:18;;;;;;;;;8.33;3.33;;;;;;;;2055138;27;3470024;-85
2023/07/04 04:17:29;;;;;;;;;6.00;5.00;;;;;;;;2063557;27;2745107;-83
2023/07/04 04:18:39;;;;;;;;;4.00;4.00;;;;;;;;2064654;27;2745055;-81
2023/07/04 04:19:50;;;;;;;;;4.67;4.33;;;;;;;;2062315;27;2746095;-81
2023/07/04 04:21:01;;;;;;;;;5.00;4.00;;;;;;;;2051417;27;2748186;-84
2023/07/04 04:22:13;;;;;;;;;3.67;2.67;;;;;;;;2052820;27;2736731;-80
2023/07/04 04:23:24;;;;;;;;;5.67;4.00;;;;;;;;2027600;27;2746597;-80
2023/07/04 04:24:36;;;;;;;;;2.00;2.00;;;;;;;;2052168;27;2741993;-80
2023/07/04 04:25:46;;;;;;;;;4.67;4.00;;;;;;;;2040003;27;2744041;-80
2023/07/04 04:27:02;;;;;;;;;6.00;4.00;;;;;;;;2061234;27;3465857;-81
2023/07/04 04:28:15;;;;;;;;;6.17;4.00;;;;;;;;2069312;27;2752340;-77
2023/07/04 04:29:26;;;;;;;;;5.00;3.67;;;;;;;;2020499;27;2750303;-85
2023/07/04 04:30:36;;;;;;;;;3.00;3.00;;;;;;;;2053976;27;2744040;-83
2023/07/04 04:31:48;;;;;;;;;5.00;4.00;;;;;;;;2061311;27;2754532;-81
2023/07/04 04:33:02;;;;;;;;;7.60;3.80;;;;;;;;2068331;27;2748229;-81
2023/07/04 04:34:21;;;;;;;;;3.17;3.17;;;;;;;;2066371;27;2747156;-81
2023/07/04 04:35:32;;;;;;;;;3.67;3.33;;;;;;;;2022936;27;2730541;-81
2023/07/04 04:36:42;;;;;;;;;3.00;2.67;;;;;;;;2069544;27;2741952;-81
2023/07/04 04:37:54;;;;;;;;;4.75;4.00;;;;;;;;2030306;27;1823662;-81
2023/07/04 04:39:07;;;;;;;;;3.17;3.17;;;;;;;;2062770;27;2741955;-81
2023/07/04 04:40:21;;;;;;;;;7.00;4.17;;;;;;;;2040803;27;2747150;-81
2023/07/04 04:41:36;;;;;;;;;8.33;5.00;;;;;;;;2029145;27;2750656;-81
2023/07/04 04:42:47;;;;;;;;;6.00;3.33;;;;;;;;2005114;27;2754567;-81
2023/07/04 04:44:02;;;;;;;;;3.80;3.00;;;;;;;;2060533;27;2733622;-81
2023/07/04 04:45:14;;;;;;;;;3.67;3.67;;;;;;;;2033199;27;2747209;-81
2023/07/04 04:46:24;;;;;;;;;4.00;3.33;;;;;;;;2035368;27;2741954;-80
2023/07/04 04:47:36;;;;;;;;;4.67;3.67;;;;;;;;2064634;27;2745076;-80
2023/07/04 04:48:46;;;;;;;;;6.33;4.67;;;;;;;;2042257;27;2746205;-80
2023/07/04 04:49:57;;;;;;;;;4.00;4.00;;;;;;;;2052104;27;2751337;-80
2023/07/04 04:51:10;;;;;;;;;4.33;4.00;;;;;;;;2067342;27;2732568;-81
2023/07/04 04:52:21;;;;;;;;;3.67;3.67;;;;;;;;2041827;27;3461675;-80
2023/07/04 04:53:31;;;;;;;;;5.33;4.00;;;;;;;;2034379;27;2750345;-81
2023/07/04 04:54:44;;;;;;;;;2.67;1.67;;;;;;;;2054968;27;2734637;-81
2023/07/04 04:55:57;;;;;;;;;6.83;6.67;;;;;;;;2069329;27;2745084;-81
2023/07/04 04:57:07;;;;;;;;;5.67;3.33;;;;;;;;2020008;27;2741967;-81
2023/07/04 04:58:18;;;;;;;;;1.67;1.67;;;;;;;;2068584;27;2738826;-81
2023/07/04 04:59:29;;;;;;;;;4.67;3.00;;;;;;;;2034066;27;2747273;-80
2023/07/04 05:00:40;;;;;;;;;7.67;5.00;;;;;;;;2063766;27;1821124;-80
2023/07/04 05:01:50;;;;;;;;;3.67;3.67;;;;;;;;2036345;27;3462214;-80
2023/07/04 05:03:01;;;;;;;;;6.00;3.67;;;;;;;;2059372;27;2752346;-82
2023/07/04 05:04:12;;;;;;;;;6.00;4.67;;;;;;;;2053548;27;2748741;-81
2023/07/04 05:05:23;;;;;;;;;4.00;3.67;;;;;;;;2060558;27;2748195;-81
2023/07/04 05:06:33;;;;;;;;;7.00;4.00;;;;;;;;2038427;27;2750805;-82
2023/07/04 05:07:45;;;;;;;;;5.00;5.00;;;;;;;;2068051;27;2743020;-82
2023/07/04 05:08:55;;;;;;;;;3.33;3.33;;;;;;;;2043254;27;2736747;-82
2023/07/04 05:10:06;;;;;;;;;5.00;5.00;;;;;;;;2064445;27;2752359;-82
2023/07/04 05:11:17;;;;;;;;;6.00;4.00;;;;;;;;2044668;27;2752455;-80
2023/07/04 05:12:28;;;;;;;;;3.33;3.33;;;;;;;;2041106;28;2746109;-81
2023/07/04 05:13:40;;;;;;;;;2.67;2.67;;;;;;;;2036813;27;2744141;-80
2023/07/04 05:14:50;;;;;;;;;3.67;3.67;;;;;;;;2041974;27;2746095;-83
2023/07/04 05:16:02;;;;;;;;;6.00;4.33;;;;;;;;2067934;27;2746213;-80
2023/07/04 05:17:12;;;;;;;;;7.00;5.00;;;;;;;;2039580;27;2745120;-81
2023/07/04 05:18:23;;;;;;;;;7.00;6.00;;;;;;;;2056577;27;2735713;-78
2023/07/04 05:19:36;;;;;;;;;8.20;6.20;;;;;;;;2060935;27;2730992;-80
2023/07/04 05:20:46;;;;;;;;;5.00;4.00;;;;;;;;2002887;27;3463889;-80
2023/07/04 05:21:58;;;;;;;;;4.00;4.00;;;;;;;;2051684;27;2746188;-80
2023/07/04 05:23:08;;;;;;;;;6.67;4.00;;;;;;;;2041397;27;2747277;-80
2023/07/04 05:24:19;;;;;;;;;6.33;5.00;;;;;;;;2060952;27;2748209;-80
2023/07/04 05:25:30;;;;;;;;;4.33;4.00;;;;;;;;2067669;27;2736762;-80
2023/07/04 05:26:40;;;;;;;;;7.67;4.67;;;;;;;;2040508;27;2746246;-79
2023/07/04 05:27:51;;;;;;;;;6.00;4.00;;;;;;;;2058600;27;3462752;-78
2023/07/04 05:29:04;;;;;;;;;7.00;4.33;;;;;;;;2045049;27;2746135;-78
2023/07/04 05:30:14;;;;;;;;;3.33;3.33;;;;;;;;2027331;27;2747200;-79
2023/07/04 05:31:27;;;;;;;;;4.00;4.00;;;;;;;;2062814;27;3460695;-81
2023/07/04 05:32:37;;;;;;;;;7.00;5.00;;;;;;;;2036949;27;2752501;-78
2023/07/04 05:33:48;;;;;;;;;7.33;6.00;;;;;;;;2063754;27;2735686;-76
2023/07/04 05:34:59;;;;;;;;;7.00;5.33;;;;;;;;2047788;27;2745159;-76
2023/07/04 05:36:14;;;;;;;;;8.00;4.00;;;;;;;;2034779;27;2745149;-76
2023/07/04 05:37:24;;;;;;;;;4.33;4.33;;;;;;;;2034599;27;2749899;-76
2023/07/04 05:38:36;;;;;;;;;10.00;5.33;;;;;;;;2060255;27;3481547;-76
2023/07/04 05:39:47;;;;;;;;;7.00;5.00;;;;;;;;2062331;27;2746200;-76
2023/07/04 05:41:00;;;;;;;;;5.17;4.83;;;;;;;;2047083;27;2745132;-76
2023/07/04 05:42:14;;;;;;;;;6.17;4.00;;;;;;;;2029707;27;2742975;-76
2023/07/04 05:43:27;;;;;;;;;3.83;3.50;;;;;;;;2030842;27;2736784;-76
2023/07/04 05:44:37;;;;;;;;;6.33;5.33;;;;;;;;2010672;27;3461735;-76
2023/07/04 05:45:49;;;;;;;;;5.33;4.00;;;;;;;;2060999;27;2742993;-76
2023/07/04 05:46:59;;;;;;;;;4.00;4.00;;;;;;;;2038828;27;2751294;-76
2023/07/04 05:48:10;;;;;;;;;4.67;4.00;;;;;;;;2060690;27;2752363;-76
2023/07/04 05:49:21;;;;;;;;;12.00;6.00;;;;;;;;2062878;27;3483585;-76
2023/07/04 05:50:32;;;;;;;;;5.00;3.33;;;;;;;;2049563;27;3461698;-74
2023/07/04 05:51:43;;;;;;;;;5.33;3.67;;;;;;;;2056582;27;2752428;-74
2023/07/04 05:52:54;;;;;;;;;6.00;4.00;;;;;;;;2055772;27;2754527;-74
2023/07/04 05:54:05;;;;;;;;;3.00;3.00;;;;;;;;2061618;27;2755000;-74
2023/07/04 05:55:16;;;;;;;;;6.33;5.00;;;;;;;;2061114;27;2745084;-74
2023/07/04 05:56:28;;;;;;;;;6.67;4.67;;;;;;;;2075234;27;2741939;-73
2023/07/04 05:57:41;;;;;;;;;4.67;4.67;;;;;;;;2060994;27;2744401;-73
2023/07/04 05:59:01;;;;;;;;;5.67;5.00;;;;;;;;2014639;27;2746206;-73
2023/07/04 06:00:11;;;;;;;;;3.00;3.00;;;;;;;;2038043;27;2752471;-74
2023/07/04 06:01:24;;;;;;;;;6.00;4.00;;;;;;;;2048859;27;2752938;-73
2023/07/04 06:02:35;;;;;;;;;5.67;4.00;;;;;;;;2036281;27;2752356;-74
2023/07/04 06:03:46;;;;;;;;;6.00;6.00;;;;;;;;2059005;27;2739187;-73
2023/07/04 06:04:56;;;;;;;;;7.00;4.00;;;;;;;;2030444;27;2746222;-74
2023/07/04 06:06:15;;;;;;;;;4.33;3.00;;;;;;;;2064366;27;2748766;-75
2023/07/04 06:07:29;;;;;;;;;4.67;3.67;;;;;;;;2043416;27;2754443;-74
2023/07/04 06:08:39;;;;;;;;;5.00;4.00;;;;;;;;2042566;27;2743108;-74
2023/07/04 06:09:50;;;;;;;;;7.00;3.33;;;;;;;;2065725;27;2752430;-74
2023/07/04 06:11:02;;;;;;;;;4.67;4.33;;;;;;;;2063824;27;2744026;-75
2023/07/04 06:12:12;;;;;;;;;6.00;5.00;;;;;;;;2030864;27;2745411;-76
2023/07/04 06:13:23;;;;;;;;;7.00;5.00;;;;;;;;2057385;27;2743001;-77
2023/07/04 06:14:37;;;;;;;;;6.25;4.00;;;;;;;;2067426;27;2740965;-74
2023/07/04 06:15:47;;;;;;;;;5.00;4.00;;;;;;;;2036295;27;2754458;-74
2023/07/04 06:17:00;;;;;;;;;5.67;5.33;;;;;;;;2066550;27;2748348;-75
2023/07/04 06:18:11;;;;;;;;;7.00;5.00;;;;;;;;2043441;27;2746108;-75
2023/07/04 06:19:22;;;;;;;;;6.00;4.67;;;;;;;;2058222;27;2746193;-76
2023/07/04 06:20:33;;;;;;;;;5.00;4.67;;;;;;;;2060070;27;2748178;-76
2023/07/04 06:21:43;;;;;;;;;5.00;4.67;;;;;;;;2014055;27;2740890;-76
2023/07/04 06:22:54;;;;;;;;;5.67;5.00;;;;;;;;2052014;27;2745138;-75
2023/07/04 06:24:05;;;;;;;;;6.00;4.33;;;;;;;;2057772;27;3456503;-75
2023/07/04 06:25:16;;;;;;;;;6.33;5.33;;;;;;;;2062814;27;2732649;-75
2023/07/04 06:26:31;;;;;;;;;4.25;3.75;;;;;;;;2024940;27;1822188;-75
2023/07/04 06:27:44;;;;;;;;;5.00;5.00;;;;;;;;2030012;27;2745112;-75
2023/07/04 06:28:55;;;;;;;;;6.00;4.00;;;;;;;;2029473;27;2744058;-75
2023/07/04 06:30:07;;;;;;;;;8.33;5.67;;;;;;;;2033300;27;3459619;-75
2023/07/04 06:31:17;;;;;;;;;5.67;5.67;;;;;;;;2033903;27;2746142;-75
2023/07/04 06:32:28;;;;;;;;;5.00;5.00;;;;;;;;2053143;27;2754510;-75
2023/07/04 06:33:39;;;;;;;;;6.33;5.00;;;;;;;;2054763;27;2746270;-75
2023/07/04 06:34:51;;;;;;;;;6.75;5.50;;;;;;;;2062630;27;2746095;-75
2023/07/04 06:36:01;;;;;;;;;7.00;5.00;;;;;;;;2031447;27;2746130;-75
2023/07/04 06:37:12;;;;;;;;;5.33;5.00;;;;;;;;2052386;27;2734716;-75
2023/07/04 06:38:23;;;;;;;;;5.33;5.00;;;;;;;;2058487;27;2742000;-75
2023/07/04 06:39:34;;;;;;;;;6.00;5.00;;;;;;;;2052913;27;3446074;-75
2023/07/04 06:40:53;;;;;;;;;8.67;5.33;;;;;;;;2051386;27;3464839;-75
2023/07/04 06:42:04;;;;;;;;;5.67;5.67;;;;;;;;2036109;27;2743004;-75
2023/07/04 06:43:15;;;;;;;;;5.67;5.67;;;;;;;;2073229;27;1814861;-75
2023/07/04 06:44:27;;;;;;;;;6.80;5.80;;;;;;;;2051992;27;2732958;-75
2023/07/04 06:45:37;;;;;;;;;4.67;4.00;;;;;;;;2007667;27;2747157;-75
2023/07/04 06:46:48;;;;;;;;;4.00;3.00;;;;;;;;2064725;27;2748263;-75
2023/07/04 06:47:59;;;;;;;;;4.33;3.67;;;;;;;;2052542;27;3467952;-75
2023/07/04 06:49:10;;;;;;;;;5.67;5.67;;;;;;;;2054574;27;2734734;-76
2023/07/04 06:50:20;;;;;;;;;6.00;5.67;;;;;;;;2041334;27;2739908;-76
2023/07/04 06:51:33;;;;;;;;;5.00;4.67;;;;;;;;2058640;27;2746153;-75
2023/07/04 06:52:43;;;;;;;;;4.00;4.00;;;;;;;;2037347;27;2754558;-75
2023/07/04 06:53:54;;;;;;;;;4.00;4.00;;;;;;;;2067042;27;2738822;-75
2023/07/04 06:55:05;;;;;;;;;7.67;5.00;;;;;;;;2041519;27;3458609;-76
2023/07/04 06:56:20;;;;;;;;;8.67;4.00;;;;;;;;2039563;27;3467937;-75
2023/07/04 06:57:30;;;;;;;;;6.00;5.00;;;;;;;;2038923;27;3461691;-75